Time;durP1;ratioP1;P1;durP2;ratioP2;P2;SDS_P1;SDS_P2;PMS_P1;PMS_P2;Temp;Humidity;BMP_temperature;BMP_pressure;BME280_temperature;BME280_humidity;BME280_pressure;Samples;Min_cycle;Max_cycle;Signal;HPM_P1;HPM_P2
2021/12/04 00:02:24;;;;;;;9.63;7.40;;;;;;;5.19;76.62;92810.56;5078392;28;20452;-38
2021/12/04 00:04:52;;;;;;;11.55;7.95;;;;;;;5.24;76.86;92824.13;5079504;28;20028;-38
2021/12/04 00:07:18;;;;;;;16.25;11.70;;;;;;;5.19;76.84;92816.03;5075753;28;20032;-37
2021/12/04 00:09:47;;;;;;;10.15;7.45;;;;;;;5.13;77.64;92816.13;5075492;28;20097;-40
2021/12/04 00:12:13;;;;;;;;;;;;;;;5.20;77.18;92822.97;5079444;28;20031;-39
2021/12/04 00:14:39;;;;;;;13.95;10.15;;;;;;;5.07;77.17;92803.81;5082027;28;19927;-40
2021/12/04 00:17:05;;;;;;;9.95;8.63;;;;;;;5.24;76.61;92826.84;5078179;28;20417;-40
2021/12/04 00:19:31;;;;;;;11.68;9.88;;;;;;;5.22;76.21;92809.47;5077715;28;20573;-40
2021/12/04 00:21:57;;;;;;;19.70;14.68;;;;;;;5.20;76.25;92809.28;5076591;28;20577;-42
2021/12/04 00:24:23;;;;;;;12.55;9.40;;;;;;;5.21;76.73;92810.75;5077098;28;20081;-41
2021/12/04 00:26:51;;;;;;;12.15;9.35;;;;;;;5.18;77.55;92811.81;5077110;28;20032;-41
2021/12/04 00:29:17;;;;;;;14.07;10.27;;;;;;;5.16;77.06;92819.81;5076595;28;20097;-42
2021/12/04 00:31:47;;;;;;;15.82;9.43;;;;;;;5.27;76.70;92816.84;5079243;28;20472;-39
2021/12/04 00:34:13;;;;;;;11.55;9.43;;;;;;;5.14;76.93;92817.63;5079519;28;20074;-41
2021/12/04 00:50:00;;;;;;;12.70;10.00;;;;;;;5.16;75.83;92826.03;5075043;28;20035;-40
2021/12/04 00:52:26;;;;;;;14.30;9.80;;;;;;;4.94;77.17;92831.94;5077821;28;20020;-40
2021/12/04 00:54:51;;;;;;;15.95;11.25;;;;;;;4.93;77.13;92822.28;5082386;28;20028;-40
2021/12/04 00:57:17;;;;;;;14.18;9.85;;;;;;;4.82;77.38;92821.75;5080169;28;20032;-40
2021/12/04 00:59:42;;;;;;;14.70;9.82;;;;;;;4.76;77.54;92819.13;5080748;28;20029;-39
2021/12/04 01:02:09;;;;;;;13.75;9.57;;;;;;;4.75;77.46;92817.66;5080126;28;20060;-41
2021/12/04 01:04:34;;;;;;;13.10;9.27;;;;;;;4.53;78.51;92796.19;5080749;28;20066;-41
2021/12/04 01:07:00;;;;;;;15.02;8.93;;;;;;;4.50;78.28;92800.72;5080457;28;20066;-41
2021/12/04 01:09:26;;;;;;;14.32;9.50;;;;;;;4.62;78.71;92787.56;5083212;28;20024;-40
2021/12/04 01:11:53;;;;;;;13.93;9.65;;;;;;;4.61;78.23;92786.84;5080286;28;20550;-43
2021/12/04 01:14:21;;;;;;;14.45;8.48;;;;;;;4.39;79.34;92770.13;5080406;28;20063;-39
2021/12/04 01:16:48;;;;;;;14.48;8.48;;;;;;;4.30;80.36;92757.63;5082321;28;20503;-40
2021/12/04 01:19:14;;;;;;;12.00;8.65;;;;;;;4.27;79.52;92750.47;5078177;28;20109;-38
2021/12/04 01:21:41;;;;;;;12.35;8.38;;;;;;;4.16;79.89;92742.47;5082062;28;20043;-39
2021/12/04 01:24:06;;;;;;;11.68;8.05;;;;;;;4.09;79.93;92743.13;5078325;28;20033;-39
2021/12/04 01:26:32;;;;;;;15.32;8.75;;;;;;;4.15;79.94;92737.53;5079525;28;20028;-41
2021/12/04 01:28:57;;;;;;;14.60;9.98;;;;;;;4.02;80.53;92741.00;5082658;28;20020;-39
2021/12/04 01:31:23;;;;;;;14.80;9.32;;;;;;;4.04;80.19;92716.63;5081991;28;20112;-40
2021/12/04 01:33:49;;;;;;;15.00;9.32;;;;;;;4.30;79.41;92722.09;5081123;28;20115;-40
2021/12/04 01:36:15;;;;;;;15.15;9.57;;;;;;;4.31;78.95;92714.66;5079250;28;20032;-44
2021/12/04 01:38:41;;;;;;;11.73;8.65;;;;;;;4.28;79.75;92721.88;5081968;28;20024;-41
2021/12/04 01:41:07;;;;;;;10.60;7.63;;;;;;;4.36;79.69;92744.59;5083028;28;20028;-41
2021/12/04 01:43:33;;;;;;;11.70;7.93;;;;;;;4.28;79.45;92745.75;5081756;28;20039;-39
2021/12/04 01:45:59;;;;;;;10.82;6.90;;;;;;;4.32;78.65;92746.16;5083145;28;20031;-40
2021/12/04 01:48:24;;;;;;;9.88;7.13;;;;;;;4.27;78.75;92750.47;5078056;28;20063;-41
2021/12/04 01:50:50;;;;;;;10.93;7.65;;;;;;;4.21;79.05;92741.63;5079291;28;21293;-39
2021/12/04 01:53:16;;;;;;;11.20;7.28;;;;;;;4.06;79.17;92744.16;5080645;28;20087;-39
2021/12/04 01:55:41;;;;;;;12.50;8.35;;;;;;;4.05;79.88;92753.59;5078813;28;20492;-40
2021/12/04 01:58:07;;;;;;;12.50;8.38;;;;;;;3.93;80.51;92746.13;5081738;28;20032;-40
2021/12/04 02:00:36;;;;;;;12.15;8.20;;;;;;;3.95;80.63;92759.97;5082816;28;20033;-40
2021/12/04 02:03:03;;;;;;;17.60;11.43;;;;;;;4.07;80.79;92764.00;5079360;28;20020;-38
2021/12/04 02:05:30;;;;;;;23.65;14.38;;;;;;;3.90;81.10;92769.75;5079500;28;20035;-39
2021/12/04 02:07:56;;;;;;;18.65;10.98;;;;;;;4.04;81.12;92773.97;5081771;28;20027;-44
2021/12/04 02:10:21;;;;;;;11.75;8.77;;;;;;;4.18;81.08;92780.91;5079919;28;20020;-45
2021/12/04 02:12:48;;;;;;;15.85;10.70;;;;;;;4.19;80.23;92779.69;5077992;28;20697;-44
2021/12/04 02:15:15;;;;;;;11.50;8.10;;;;;;;4.23;79.39;92779.34;5079029;28;20039;-44
2021/12/04 02:17:41;;;;;;;11.18;7.85;;;;;;;4.27;79.05;92785.97;5079606;28;20024;-43
2021/12/04 02:20:12;;;;;;;13.40;8.93;;;;;;;4.55;79.16;92780.00;5080528;28;20103;-42
2021/12/04 02:22:38;;;;;;;16.40;11.02;;;;;;;4.46;78.57;92788.63;5080155;28;20040;-42
2021/12/04 02:25:05;;;;;;;14.57;8.85;;;;;;;4.24;78.13;92764.44;5077480;28;20048;-40
2021/12/04 02:27:31;;;;;;;12.45;9.45;;;;;;;4.47;78.92;92787.38;5079884;28;20500;-38
2021/12/04 02:29:57;;;;;;;13.35;9.02;;;;;;;4.46;78.06;92767.50;5081006;28;20040;-38
2021/12/04 02:32:22;;;;;;;18.10;9.77;;;;;;;4.51;77.71;92768.66;5078692;28;20032;-38
2021/12/04 02:34:48;;;;;;;15.52;10.02;;;;;;;4.28;78.97;92762.88;5082484;28;20032;-38
2021/12/04 02:37:13;;;;;;;20.35;10.63;;;;;;;4.13;79.36;92751.72;5078940;28;20043;-38
2021/12/04 02:39:44;;;;;;;27.33;14.50;;;;;;;4.18;79.27;92752.88;5079232;28;20516;-38
2021/12/04 02:42:20;;;;;;;31.17;16.48;;;;;;;4.22;79.39;92754.03;5077563;28;20521;-37
2021/12/04 02:44:45;;;;;;;27.70;14.30;;;;;;;4.21;79.06;92751.81;5079730;28;20047;-37
2021/12/04 02:47:11;;;;;;;16.63;11.02;;;;;;;4.06;78.85;92752.34;5079253;28;20490;-39
2021/12/04 02:49:36;;;;;;;28.15;15.07;;;;;;;4.13;79.86;92759.91;5080837;28;20040;-37
2021/12/04 02:52:09;;;;;;;19.83;12.40;;;;;;;4.17;79.50;92746.69;5076688;28;20481;-38
2021/12/04 02:54:35;;;;;;;21.88;13.38;;;;;;;4.11;79.42;92737.84;5078531;28;20048;-38
2021/12/04 02:57:01;;;;;;;22.83;14.32;;;;;;;4.26;78.93;92756.47;5080479;28;20036;-38
2021/12/04 02:59:27;;;;;;;21.60;14.30;;;;;;;4.41;78.24;92737.53;5078140;28;20028;-38
2021/12/04 03:01:55;;;;;;;23.20;16.23;;;;;;;4.31;78.30;92741.97;5079544;28;20024;-38
2021/12/04 03:04:23;;;;;;;19.20;11.60;;;;;;;4.34;79.29;92744.38;5080768;28;20036;-39
2021/12/04 03:06:49;;;;;;;14.50;9.80;;;;;;;4.35;78.75;92737.63;5083317;28;20046;-37
2021/12/04 03:09:15;;;;;;;17.95;9.27;;;;;;;4.42;77.78;92733.53;5077613;28;20024;-40
2021/12/04 03:11:41;;;;;;;15.52;9.75;;;;;;;4.02;78.43;92723.88;5079940;28;20028;-43
2021/12/04 03:14:06;;;;;;;20.48;10.82;;;;;;;4.13;79.34;92721.69;5079160;28;20116;-39
2021/12/04 03:16:33;;;;;;;15.43;9.63;;;;;;;4.05;79.91;92718.06;5077208;28;20577;-39
2021/12/04 03:18:59;;;;;;;19.50;11.32;;;;;;;3.70;81.04;92708.25;5080490;28;20028;-40
2021/12/04 03:21:25;;;;;;;21.60;12.23;;;;;;;3.83;81.08;92710.31;5078608;28;20066;-41
2021/12/04 03:23:54;;;;;;;17.95;11.35;;;;;;;4.03;81.16;92717.16;5077890;28;20051;-42
2021/12/04 03:26:20;;;;;;;19.08;11.57;;;;;;;4.05;80.51;92715.34;5074917;28;20044;-44
2021/12/04 03:28:46;;;;;;;17.88;11.10;;;;;;;4.14;80.60;92716.94;5078697;28;20031;-42
2021/12/04 03:31:17;;;;;;;18.63;11.25;;;;;;;4.15;80.14;92724.63;5075949;28;20154;-45
2021/12/04 03:41:55;;;;;;;14.80;10.18;;;;;;;4.28;80.01;92715.69;5078916;28;20106;-39
2021/12/04 03:44:21;;;;;;;13.55;9.35;;;;;;;4.16;79.54;92708.97;5077187;28;20032;-41
2021/12/04 03:46:48;;;;;;;17.52;10.93;;;;;;;4.09;79.90;92717.78;5077339;28;20035;-41
2021/12/04 03:49:14;;;;;;;16.52;10.90;;;;;;;4.19;80.13;92727.75;5077812;28;20058;-39
2021/12/04 03:51:40;;;;;;;14.93;9.75;;;;;;;4.20;80.22;92721.03;5076334;28;20027;-39
2021/12/04 03:54:05;;;;;;;14.07;9.85;;;;;;;4.23;80.51;92716.50;5077684;28;20036;-39
2021/12/04 03:56:32;;;;;;;16.17;9.63;;;;;;;4.14;80.50;92725.88;5079233;28;20038;-39
2021/12/04 03:58:58;;;;;;;14.48;9.43;;;;;;;4.17;80.59;92727.56;5080185;28;20051;-38
2021/12/04 04:01:24;;;;;;;12.90;7.90;;;;;;;4.05;80.31;92718.06;5078569;28;20074;-39
2021/12/04 04:03:49;;;;;;;16.30;9.20;;;;;;;4.18;80.67;92747.44;5079109;28;20027;-39
2021/12/04 04:06:15;;;;;;;11.35;8.68;;;;;;;4.31;80.31;92750.16;5078627;28;20493;-38
2021/12/04 04:08:41;;;;;;;11.98;8.35;;;;;;;4.08;80.59;92751.81;5075617;28;20111;-39
2021/12/04 04:11:07;;;;;;;13.35;8.98;;;;;;;4.17;81.26;92762.34;5078564;28;20020;-39
2021/12/04 04:13:32;;;;;;;12.15;8.40;;;;;;;4.11;81.28;92765.19;5079337;28;20528;-38
2021/12/04 04:16:00;;;;;;;12.68;9.75;;;;;;;4.15;80.91;92760.13;5078250;28;20043;-38
2021/12/04 04:18:26;;;;;;;17.00;10.30;;;;;;;4.17;81.06;92768.53;5077335;28;20028;-38
2021/12/04 04:20:51;;;;;;;14.23;9.38;;;;;;;4.16;81.12;92777.97;5079273;28;20116;-39
2021/12/04 04:23:17;;;;;;;11.68;8.13;;;;;;;4.07;80.95;92778.38;5076876;28;20039;-39
2021/12/04 04:25:43;;;;;;;15.75;8.98;;;;;;;3.97;81.94;92782.78;5078403;28;20031;-39
2021/12/04 04:28:09;;;;;;;13.82;7.75;;;;;;;3.97;81.72;92796.44;5079222;28;20063;-40
2021/12/04 04:30:36;;;;;;;13.85;9.05;;;;;;;3.92;81.79;92793.81;5081096;28;20024;-39
2021/12/04 04:33:03;;;;;;;13.10;8.43;;;;;;;4.01;81.86;92790.66;5082233;28;20123;-39
2021/12/04 04:35:30;;;;;;;14.38;8.90;;;;;;;3.85;81.69;92776.75;5081566;28;20029;-39
2021/12/04 05:02:35;;;;;;;12.68;10.70;;;;;;;3.75;81.88;92758.56;5081822;28;20121;-40
2021/12/04 05:13:06;;;;;;;15.73;10.63;;;;;;;3.88;81.91;92761.34;5081830;28;20111;-40
2021/12/04 05:18:52;;;;;;;19.50;14.82;;;;;;;3.86;81.59;92758.41;5081345;28;20036;-41
2021/12/04 05:21:03;;;;;;;13.02;8.40;;;;;;;3.88;81.26;92753.16;5075599;28;20066;-40
2021/12/04 05:23:30;;;;;;;6.07;4.07;;;;;;;3.83;81.71;92754.00;5080287;28;20031;-41
2021/12/04 05:25:55;;;;;;;3.70;2.67;;;;;;;3.76;81.61;92741.69;5079658;28;20027;-41
2021/12/04 05:28:21;;;;;;;2.60;2.33;;;;;;;3.91;81.47;92767.75;5082161;28;20032;-42
2021/12/04 05:30:46;;;;;;;4.07;3.72;;;;;;;3.70;82.39;92768.31;5080054;28;20029;-41
2021/12/04 05:33:12;;;;;;;1.98;1.77;;;;;;;3.67;82.48;92753.00;5080996;28;20159;-40
2021/12/04 05:35:38;;;;;;;2.30;1.60;;;;;;;3.83;81.92;92756.72;5078637;28;20081;-40
2021/12/04 05:38:04;;;;;;;1.77;1.65;;;;;;;3.76;82.06;92765.53;5081349;28;20085;-40
2021/12/04 05:40:30;;;;;;;5.00;1.38;;;;;;;3.74;81.83;92770.75;5078013;28;20410;-40
2021/12/04 05:43:01;;;;;;;1.58;1.30;;;;;;;3.73;81.55;92767.28;5078767;28;20458;-40
2021/12/04 05:45:28;;;;;;;1.58;1.20;;;;;;;3.71;81.88;92774.53;5081050;28;20674;-40
2021/12/04 05:55:54;;;;;;;3.22;1.90;;;;;;;3.60;81.92;92763.78;5082437;28;20028;-39
2021/12/04 05:58:26;;;;;;;3.45;2.45;;;;;;;3.60;81.65;92763.78;5080767;28;20040;-38
2021/12/04 06:00:53;;;;;;;2.00;1.60;;;;;;;3.58;81.79;92766.28;5078970;28;20036;-40
2021/12/04 06:03:19;;;;;;;5.20;1.65;;;;;;;3.65;81.17;92755.53;5079509;28;20031;-40
2021/12/04 06:05:44;;;;;;;3.15;2.38;;;;;;;3.54;80.95;92749.50;5081287;28;20550;-39
2021/12/04 06:08:10;;;;;;;17.65;12.15;;;;;;;3.58;81.22;92766.28;5080455;28;20075;-39
2021/12/04 06:10:36;;;;;;;4.82;2.55;;;;;;;3.63;80.94;92763.50;5081261;28;20085;-39
2021/12/04 06:13:02;;;;;;;8.77;6.68;;;;;;;3.60;80.31;92775.44;5080437;28;20029;-39
2021/12/04 06:15:27;;;;;;;19.30;6.63;;;;;;;3.53;80.33;92778.06;5077569;28;20047;-38
2021/12/04 06:17:55;;;;;;;16.20;9.27;;;;;;;3.51;80.64;92775.09;5078092;28;20098;-38
2021/12/04 06:23:04;;;;;;;35.22;17.92;;;;;;;3.44;80.75;92792.06;5080765;28;20123;-38
2021/12/04 06:25:30;;;;;;;27.55;14.52;;;;;;;3.37;80.70;92787.22;5081654;28;20107;-38
2021/12/04 06:27:56;;;;;;;11.52;7.30;;;;;;;3.42;81.15;92794.59;5079348;28;20029;-38
2021/12/04 06:30:22;;;;;;;34.65;16.60;;;;;;;3.36;80.99;92808.28;5080090;28;20035;-39
2021/12/04 06:32:50;;;;;;;5.50;4.35;;;;;;;3.34;81.57;92810.81;5079556;28;20492;-39
2021/12/04 06:35:17;;;;;;;4.28;3.78;;;;;;;3.33;81.33;92811.34;5080860;28;20028;-39
2021/12/04 06:37:43;;;;;;;14.30;8.30;;;;;;;3.29;80.78;92811.63;5077966;28;20063;-39
2021/12/04 06:40:13;;;;;;;12.15;7.18;;;;;;;3.32;80.59;92820.75;5075421;28;20505;-40
2021/12/04 06:42:40;;;;;;;4.35;3.65;;;;;;;3.18;80.47;92816.50;5077588;28;20089;-39
2021/12/04 06:45:07;;;;;;;14.63;9.10;;;;;;;3.24;80.09;92817.16;5075554;28;20024;-39
2021/12/04 06:47:33;;;;;;;8.55;6.40;;;;;;;3.22;80.02;92817.69;5075734;28;21262;-38
2021/12/04 06:50:15;;;;;;;6.60;5.10;;;;;;;3.25;80.00;92818.66;5078084;28;20085;-39
2021/12/04 06:52:44;;;;;;;11.65;4.10;;;;;;;3.32;79.80;92820.75;5080698;28;20016;-39
2021/12/04 06:55:10;;;;;;;;;;;;;;;3.29;79.41;92810.91;5082158;28;20036;-38
2021/12/04 06:57:38;;;;;;;6.30;5.22;;;;;;;3.35;79.82;92815.03;5075449;28;19912;-38
2021/12/04 07:00:07;;;;;;;8.75;7.22;;;;;;;3.47;79.31;92815.59;5071608;28;20020;-39
2021/12/04 07:02:32;;;;;;;7.00;5.65;;;;;;;3.65;79.02;92823.03;5073095;28;20743;-40
2021/12/04 07:04:58;;;;;;;8.35;6.40;;;;;;;3.88;78.61;92828.88;5073341;28;20029;-39
2021/12/04 07:07:23;;;;;;;13.00;8.18;;;;;;;3.97;78.00;92823.75;5073326;28;20060;-39
2021/12/04 07:09:49;;;;;;;15.25;9.63;;;;;;;3.93;77.73;92833.50;5073021;28;20046;-40
2021/12/04 07:12:14;;;;;;;14.60;9.50;;;;;;;4.03;77.96;92840.78;5073977;28;20016;-39
2021/12/04 07:14:40;;;;;;;15.30;9.40;;;;;;;4.17;77.54;92847.03;5072796;28;20033;-40
2021/12/04 07:17:08;;;;;;;17.23;10.95;;;;;;;4.14;78.22;92826.94;5072150;28;20027;-39
2021/12/04 07:19:34;;;;;;;11.20;7.47;;;;;;;4.34;76.82;92837.28;5073056;28;20112;-38
2021/12/04 07:22:04;;;;;;;16.83;10.93;;;;;;;4.43;75.98;92844.34;5074296;28;20036;-39
2021/12/04 07:24:32;;;;;;;19.15;12.55;;;;;;;4.42;76.64;92845.59;5072074;28;20066;-38
2021/12/04 07:26:58;;;;;;;14.48;10.30;;;;;;;4.23;76.01;92823.81;5073394;28;20040;-40
2021/12/04 07:29:23;;;;;;;12.30;9.90;;;;;;;4.32;76.70;92845.28;5074242;28;20543;-39
2021/12/04 07:31:50;;;;;;;10.60;7.93;;;;;;;4.31;76.88;92835.59;5073920;28;20024;-40
2021/12/04 07:34:16;;;;;;;11.00;6.35;;;;;;;4.50;74.99;92852.63;5074685;28;20115;-39
2021/12/04 07:36:42;;;;;;;10.05;6.55;;;;;;;4.44;75.07;92843.81;5076543;28;20127;-39
2021/12/04 07:39:08;;;;;;;8.50;6.10;;;;;;;4.20;75.58;92830.31;5076923;28;20115;-38
2021/12/04 07:41:38;;;;;;;5.93;4.30;;;;;;;4.34;75.48;92837.28;5075113;28;20111;-40
2021/12/04 07:44:10;;;;;;;6.93;5.50;;;;;;;4.34;74.88;92834.56;5072960;28;20040;-39
2021/12/04 07:46:38;;;;;;;7.00;4.13;;;;;;;4.14;74.93;92837.13;5071918;28;20056;-38
2021/12/04 07:49:03;;;;;;;6.10;4.32;;;;;;;4.12;75.79;92842.38;5073994;28;20032;-39
2021/12/04 07:51:29;;;;;;;8.68;7.78;;;;;;;3.99;76.11;92843.09;5075809;28;20093;-39
2021/12/04 07:53:54;;;;;;;16.23;13.30;;;;;;;3.93;76.72;92841.69;5075078;28;20109;-39
2021/12/04 07:56:20;;;;;;;12.32;9.65;;;;;;;3.92;77.52;92840.94;5079916;28;20028;-39
2021/12/04 07:58:46;;;;;;;9.40;7.13;;;;;;;4.06;76.38;92837.00;5072524;28;20042;-38
2021/12/04 08:01:12;;;;;;;13.80;10.35;;;;;;;4.09;75.98;92835.25;5072953;28;20539;-39
2021/12/04 08:03:38;;;;;;;6.80;5.45;;;;;;;4.22;75.35;92832.53;5074052;28;20032;-39
2021/12/04 08:06:04;;;;;;;9.98;7.68;;;;;;;4.21;75.30;92842.72;5079927;28;20799;-39
2021/12/04 08:08:29;;;;;;;9.80;8.25;;;;;;;4.25;75.19;92839.69;5075336;28;20056;-38
2021/12/04 08:10:55;;;;;;;13.68;7.15;;;;;;;4.36;74.70;92847.69;5075400;28;20032;-38
2021/12/04 08:13:21;;;;;;;7.75;5.72;;;;;;;4.44;73.49;92846.53;5075011;28;20016;-39
2021/12/04 08:15:47;;;;;;;4.53;3.88;;;;;;;4.39;73.42;92838.44;5070917;28;20036;-39
2021/12/04 08:18:13;;;;;;;5.60;4.10;;;;;;;4.44;73.12;92821.94;5074383;28;20038;-39
2021/12/04 08:20:38;;;;;;;6.03;4.38;;;;;;;4.58;72.56;92839.84;5073242;28;20604;-39
2021/12/04 08:23:06;;;;;;;6.65;4.90;;;;;;;4.56;72.00;92817.03;5072177;28;20623;-39
2021/12/04 08:25:33;;;;;;;18.00;12.63;;;;;;;4.76;72.42;92829.34;5073696;28;20543;-39
2021/12/04 08:27:59;;;;;;;5.25;3.92;;;;;;;4.77;71.60;92828.06;5072165;28;20033;-40
2021/12/04 08:30:29;;;;;;;9.90;6.90;;;;;;;4.91;71.69;92821.31;5073771;28;20143;-40
2021/12/04 08:32:56;;;;;;;7.05;4.93;;;;;;;5.04;70.62;92813.13;5073742;28;20017;-39
2021/12/04 08:35:24;;;;;;;9.68;7.00;;;;;;;5.04;70.35;92815.84;5073076;28;20047;-40
2021/12/04 08:37:50;;;;;;;7.35;5.30;;;;;;;5.24;69.79;92809.72;5075666;28;20119;-41
2021/12/04 08:40:17;;;;;;;6.32;5.22;;;;;;;5.40;68.81;92805.88;5071612;28;20036;-38
2021/12/04 08:42:44;;;;;;;5.80;4.50;;;;;;;5.70;69.03;92800.72;5073804;28;20020;-39
2021/12/04 08:45:11;;;;;;;6.47;4.63;;;;;;;5.86;67.08;92799.63;5073871;28;20501;-40
2021/12/04 08:47:38;;;;;;;7.13;4.30;;;;;;;5.80;67.14;92796.25;5073283;28;20497;-39
2021/12/04 08:50:09;;;;;;;9.30;6.00;;;;;;;5.97;66.19;92801.38;5074364;28;20657;-41
2021/12/04 08:52:36;;;;;;;18.83;8.90;;;;;;;5.99;67.01;92793.34;5076801;28;20561;-41
2021/12/04 08:55:03;;;;;;;14.20;7.75;;;;;;;6.05;68.25;92794.69;5079098;28;20092;-39
2021/12/04 08:57:28;;;;;;;18.85;11.73;;;;;;;5.94;68.86;92794.94;5079797;28;20024;-40
2021/12/04 08:59:54;;;;;;;16.27;11.88;;;;;;;6.01;69.36;92793.53;5074599;28;20031;-40
2021/12/04 09:02:20;;;;;;;10.45;7.05;;;;;;;5.99;67.54;92777.66;5075496;28;20024;-40
2021/12/04 09:04:46;;;;;;;9.85;6.97;;;;;;;5.79;68.08;92785.81;5073049;28;20028;-39
2021/12/04 09:07:13;;;;;;;8.55;5.95;;;;;;;5.49;68.23;92780.78;5074250;28;20023;-40
2021/12/04 09:09:39;;;;;;;9.23;6.35;;;;;;;5.56;68.73;92776.66;5073970;28;20059;-40
2021/12/04 09:12:08;;;;;;;15.73;9.07;;;;;;;5.59;68.40;92787.28;5071466;28;20520;-39
2021/12/04 09:14:37;;;;;;;14.60;10.85;;;;;;;5.66;70.42;92786.63;5075855;28;20059;-37
2021/12/04 09:17:06;;;;;;;40.75;21.05;;;;;;;5.69;70.48;92782.81;5077084;28;20036;-38
2021/12/04 09:19:32;;;;;;;25.38;15.85;;;;;;;5.81;69.80;92781.28;5076731;28;20038;-40
2021/12/04 09:21:58;;;;;;;17.00;11.45;;;;;;;5.85;69.78;92762.53;5077992;28;20043;-40
2021/12/04 09:24:27;;;;;;;18.98;12.15;;;;;;;5.97;69.50;92787.66;5076572;28;21335;-41
2021/12/04 09:27:10;;;;;;;16.00;11.07;;;;;;;5.95;70.08;92776.50;5074499;28;20032;-39
2021/12/04 10:02:41;;;;;;;8.25;5.18;;;;;;;5.17;69.80;92797.41;5076330;28;20039;-39
2021/12/04 10:19:33;;;;;;;18.05;12.23;;;;;;;5.34;69.88;92773.16;5065177;28;20040;-38
2021/12/04 10:33:15;;;;;;;5.80;3.65;;;;;;;5.78;69.39;92768.66;5075597;28;20181;-38
2021/12/04 10:35:41;;;;;;;10.45;4.65;;;;;;;5.95;68.19;92790.22;5074042;28;20101;-39
2021/12/04 10:38:09;;;;;;;25.45;17.58;;;;;;;6.18;68.28;92791.13;5073932;28;20020;-39
2021/12/04 10:40:40;;;;;;;10.30;5.53;;;;;;;6.19;66.66;92781.66;5075840;28;20042;-39
2021/12/04 10:43:12;;;;;;;6.97;4.68;;;;;;;6.25;67.27;92776.00;5075311;28;20047;-39
2021/12/04 10:45:42;;;;;;;10.93;5.30;;;;;;;6.29;66.60;92784.63;5075992;28;20427;-39
2021/12/04 10:48:12;;;;;;;10.88;6.90;;;;;;;6.25;66.13;92779.50;5073828;28;20046;-39
2021/12/04 10:50:47;;;;;;;7.57;4.80;;;;;;;6.16;67.23;92776.47;5073535;28;20032;-40
2021/12/04 10:53:25;;;;;;;7.75;4.78;;;;;;;6.23;67.03;92760.09;5074714;28;20027;-39
2021/12/04 10:56:52;;;;;;;7.25;4.30;;;;;;;6.39;65.63;92756.19;5075283;28;20101;-39
2021/12/04 11:01:21;;;;;;;13.43;8.07;;;;;;;6.62;65.82;92754.34;5075354;28;20036;-40
2021/12/04 11:06:42;;;;;;;11.75;7.80;;;;;;;6.78;64.65;92750.38;5073995;28;20126;-40
2021/12/04 11:44:47;;;;;;;20.83;13.32;;;;;;;6.18;71.16;92763.72;5072852;28;20027;-40
2021/12/04 11:47:13;;;;;;;22.35;13.00;;;;;;;6.13;71.57;92766.63;5076039;28;20059;-40
2021/12/04 11:49:39;;;;;;;23.92;15.60;;;;;;;6.04;71.34;92765.78;5075075;28;20115;-43
2021/12/04 11:52:14;;;;;;;23.73;15.57;;;;;;;6.01;71.84;92761.41;5076542;28;20032;-40
2021/12/04 11:54:52;;;;;;;19.88;14.93;;;;;;;5.90;72.59;92763.66;5073372;28;20122;-40
2021/12/04 11:57:30;;;;;;;25.58;15.13;;;;;;;6.02;71.50;92771.09;5074413;28;20831;-41
2021/12/04 12:00:17;;;;;;;26.83;15.95;;;;;;;5.94;70.83;92772.28;5073999;28;20041;-42
2021/12/04 12:02:44;;;;;;;17.80;11.80;;;;;;;5.96;69.62;92777.97;5071335;28;20587;-40
2021/12/04 12:05:15;;;;;;;15.15;9.88;;;;;;;5.73;69.16;92787.97;5076390;28;20036;-41
2021/12/04 12:07:50;;;;;;;8.85;6.13;;;;;;;5.54;69.25;92779.19;5074289;28;20035;-40
2021/12/04 12:10:16;;;;;;;6.13;4.13;;;;;;;5.64;69.83;92783.69;5075731;28;20539;-42
2021/12/04 12:12:43;;;;;;;5.68;4.85;;;;;;;5.57;69.87;92784.31;5073271;28;20064;-40
2021/12/04 12:15:29;;;;;;;10.23;8.82;;;;;;;5.56;69.93;92782.13;5074971;28;20104;-39
2021/12/04 12:17:56;;;;;;;6.30;4.80;;;;;;;5.49;70.10;92783.53;5075617;28;20071;-40
2021/12/04 12:23:31;;;;;;;13.20;9.68;;;;;;;5.50;70.21;92774.03;5067302;28;20517;-40
2021/12/04 12:36:02;;;;;;;14.90;11.02;;;;;;;5.60;71.45;92774.31;5075680;28;20040;-41
2021/12/04 12:37:13;;;;;;;12.77;7.78;;;;;;;5.71;70.97;92765.84;5073799;28;20603;-43
2021/12/04 12:39:59;;;;;;;12.80;9.10;;;;;;;5.68;71.38;92764.16;5073525;28;20038;-41
2021/12/04 12:42:35;;;;;;;19.67;13.18;;;;;;;5.80;71.25;92752.44;5071694;28;20072;-41
2021/12/04 12:45:23;;;;;;;17.40;9.73;;;;;;;5.82;70.35;92749.16;5075494;28;20024;-46
2021/12/04 12:47:54;;;;;;;10.90;7.20;;;;;;;5.86;70.72;92747.59;5074655;28;20560;-41
2021/12/04 12:50:44;;;;;;;20.00;12.85;;;;;;;5.97;70.06;92757.53;5077241;28;20028;-41
2021/12/04 12:53:23;;;;;;;15.45;9.88;;;;;;;6.08;69.92;92758.00;5077017;28;20083;-43
2021/12/04 12:55:52;;;;;;;13.05;8.75;;;;;;;6.01;70.09;92766.88;5077711;28;20147;-40
2021/12/04 12:58:33;;;;;;;17.83;11.50;;;;;;;5.93;70.80;92776.31;5078347;28;20111;-46
2021/12/04 13:12:47;;;;;;;27.38;16.13;;;;;;;5.89;69.92;92784.84;5077482;28;20096;-41
2021/12/04 13:15:42;;;;;;;21.23;11.95;;;;;;;5.79;70.60;92783.09;5076545;28;20047;-41
2021/12/04 13:18:19;;;;;;;15.65;9.48;;;;;;;5.73;71.37;92777.75;5073132;28;20043;-41
2021/12/04 13:20:45;;;;;;;11.32;7.70;;;;;;;5.82;70.71;92780.03;5076474;28;20483;-40
2021/12/04 13:23:14;;;;;;;8.30;5.80;;;;;;;5.61;70.75;92792.22;5075137;28;20030;-40
2021/12/04 13:25:56;;;;;;;10.10;7.13;;;;;;;5.56;70.71;92791.09;5080712;28;20024;-43
2021/12/04 13:28:26;;;;;;;9.35;6.55;;;;;;;5.55;70.52;92799.81;5079153;28;20046;-41
2021/12/04 13:30:51;;;;;;;;;;;;;;;5.51;70.87;92796.69;5078765;28;20116;-41
2021/12/04 13:33:17;;;;;;;12.73;7.88;;;;;;;5.43;71.08;92793.13;5080607;28;19924;-42
2021/12/04 13:35:46;;;;;;;7.18;5.43;;;;;;;5.30;71.75;92791.91;5075003;28;20062;-42
2021/12/04 13:38:16;;;;;;;6.22;4.95;;;;;;;5.23;71.86;92797.28;5078624;28;20063;-42
2021/12/04 13:40:44;;;;;;;9.15;6.50;;;;;;;5.19;71.93;92792.16;5080164;28;20030;-41
2021/12/04 13:43:11;;;;;;;6.80;5.60;;;;;;;5.25;71.40;92789.28;5076551;28;20027;-43
2021/12/04 13:45:37;;;;;;;7.85;6.22;;;;;;;5.25;72.04;92792.00;5079087;28;20028;-40
2021/12/04 13:48:03;;;;;;;16.83;6.38;;;;;;;5.31;72.35;92798.84;5078441;28;20063;-41
2021/12/04 13:52:59;;;;;;;12.40;7.60;;;;;;;5.26;71.54;92788.03;5079113;28;20031;-42
2021/12/04 13:55:25;;;;;;;16.33;6.57;;;;;;;5.30;71.52;92780.97;5077684;28;20123;-40
2021/12/04 13:57:51;;;;;;;10.82;7.15;;;;;;;5.40;71.77;92775.75;5078615;28;20024;-40
2021/12/04 14:00:17;;;;;;;14.60;6.82;;;;;;;5.36;71.72;92776.09;5075561;28;20793;-40
2021/12/04 14:02:43;;;;;;;81.10;9.80;;;;;;;5.31;72.14;92778.94;5077164;28;20074;-41
2021/12/04 14:05:15;;;;;;;11.27;6.95;;;;;;;5.35;71.92;92779.34;5076713;28;20030;-40
2021/12/04 14:07:54;;;;;;;18.35;9.50;;;;;;;5.52;71.59;92776.25;5078008;28;20101;-40
2021/12/04 14:10:22;;;;;;;9.63;6.78;;;;;;;5.55;71.40;92778.66;5078172;28;20031;-42
2021/12/04 14:12:48;;;;;;;13.63;9.00;;;;;;;5.40;71.47;92767.56;5077585;28;20037;-41
2021/12/04 14:15:20;;;;;;;11.15;7.43;;;;;;;5.59;71.19;92779.06;5077355;28;20448;-43
2021/12/04 14:17:45;;;;;;;8.25;6.50;;;;;;;5.61;71.46;92778.53;5077790;28;20444;-40
2021/12/04 14:20:21;;;;;;;6.68;4.72;;;;;;;5.65;70.43;92781.69;5074867;28;20038;-39
2021/12/04 14:22:49;;;;;;;10.13;6.75;;;;;;;5.43;69.91;92765.75;5077159;28;20037;-39
2021/12/04 14:25:16;;;;;;;13.15;8.15;;;;;;;5.43;70.83;92782.19;5076314;28;20036;-39
2021/12/04 14:27:41;;;;;;;8.90;6.15;;;;;;;5.37;70.98;92787.78;5078984;28;20514;-40
2021/12/04 14:30:15;;;;;;;10.05;7.30;;;;;;;5.42;70.66;92775.97;5079521;28;20054;-39
2021/12/04 14:32:43;;;;;;;11.70;8.48;;;;;;;5.31;70.96;92771.47;5080259;28;20024;-43
2021/12/04 14:35:15;;;;;;;12.60;7.93;;;;;;;5.34;70.56;92777.88;5079200;28;20511;-43
2021/12/04 14:37:43;;;;;;;27.85;18.73;;;;;;;5.33;70.82;92779.16;5081077;28;20028;-40
2021/12/04 14:40:12;;;;;;;13.63;8.85;;;;;;;5.27;71.04;92775.78;5079043;28;20032;-38
2021/12/04 14:42:38;;;;;;;13.95;9.15;;;;;;;5.28;72.16;92785.50;5082990;28;20024;-37
2021/12/04 14:45:08;;;;;;;21.65;12.70;;;;;;;5.35;72.95;92791.03;5079946;28;20032;-45
2021/12/04 14:47:40;;;;;;;19.33;13.50;;;;;;;5.41;72.94;92796.41;5080194;28;20028;-41
2021/12/04 14:50:08;;;;;;;20.90;14.07;;;;;;;5.22;72.96;92787.59;5078901;28;20032;-43
2021/12/04 14:52:34;;;;;;;20.13;12.75;;;;;;;5.25;72.93;92783.81;5078495;28;20107;-40